createdAt,value
2023-03-10T00:01:23.496Z,9.20
2023-03-10T00:03:53.837Z,9.40
2023-03-10T00:06:26.522Z,9.10
2023-03-10T00:08:55.471Z,9.10
2023-03-10T00:11:24.188Z,9.00
2023-03-10T00:13:53.173Z,9.10
2023-03-10T00:16:24.337Z,9.10
2023-03-10T00:18:54.714Z,9.00
2023-03-10T00:21:26.854Z,9.20
2023-03-10T00:23:55.959Z,9.00
2023-03-10T00:26:27.651Z,9.00
2023-03-10T00:28:56.938Z,9.00
2023-03-10T00:31:28.159Z,8.80
2023-03-10T00:33:58.868Z,9.00
2023-03-10T00:36:30.043Z,8.90
2023-03-10T00:39:00.983Z,8.90
2023-03-10T00:41:31.917Z,8.80
2023-03-10T00:44:02.338Z,8.90
2023-03-10T00:46:33.211Z,8.80
2023-03-10T00:49:03.632Z,8.80
2023-03-10T00:51:32.290Z,8.90
2023-03-10T00:54:03.073Z,8.80
2023-03-10T00:56:32.127Z,9.00
2023-03-10T00:59:02.261Z,9.10
2023-03-10T01:01:33.749Z,9.10
2023-03-10T01:04:08.286Z,9.20
2023-03-10T01:06:38.007Z,9.10
2023-03-10T01:09:07.306Z,9.20
2023-03-10T01:11:36.190Z,9.30
2023-03-10T01:14:08.481Z,9.20
2023-03-10T01:16:37.124Z,9.30
2023-03-10T01:19:07.002Z,9.40
2023-03-10T01:21:38.766Z,9.40
2023-03-10T01:24:15.014Z,9.40
2023-03-10T01:26:44.557Z,9.40
2023-03-10T01:29:13.638Z,9.60
2023-03-10T01:31:42.073Z,9.60
2023-03-10T01:34:12.282Z,9.50
2023-03-10T01:36:42.984Z,9.50
2023-03-10T01:39:11.959Z,9.70
2023-03-10T01:41:43.242Z,9.60
2023-03-10T01:44:17.043Z,9.60
2023-03-10T01:46:49.379Z,9.60
2023-03-10T01:49:41.703Z,9.60
2023-03-10T01:52:17.747Z,9.70
2023-03-10T01:54:52.069Z,9.70
2023-03-10T01:57:26.183Z,10.10
2023-03-10T01:59:57.463Z,9.70
2023-03-10T02:02:27.913Z,9.70
2023-03-10T02:04:59.824Z,9.70
2023-03-10T02:07:34.612Z,9.70
2023-03-10T02:10:05.549Z,9.80
2023-03-10T02:12:34.202Z,9.70
2023-03-10T02:15:02.527Z,9.70
2023-03-10T02:17:31.569Z,9.80
2023-03-10T02:20:21.452Z,9.70
2023-03-10T02:22:51.316Z,9.60
2023-03-10T02:25:36.674Z,9.50
2023-03-10T02:28:08.661Z,9.70
2023-03-10T02:30:43.425Z,9.50
2023-03-10T02:33:17.770Z,9.50
2023-03-10T02:35:46.964Z,9.50
2023-03-10T02:38:20.427Z,9.70
2023-03-10T02:40:52.352Z,9.50
2023-03-10T02:43:30.363Z,9.60
2023-03-10T02:46:21.942Z,9.70
2023-03-10T02:48:51.679Z,9.50
2023-03-10T02:51:33.062Z,9.60
2023-03-10T02:54:08.566Z,9.60
2023-03-10T02:56:38.942Z,9.60
2023-03-10T02:59:10.331Z,9.50
2023-03-10T03:01:43.045Z,9.50
2023-03-10T03:04:11.918Z,9.60
2023-03-10T03:06:41.120Z,9.60
2023-03-10T03:09:10.275Z,9.70
2023-03-10T03:11:38.747Z,9.70
2023-03-10T03:14:12.060Z,9.60
2023-03-10T03:16:40.922Z,9.60
2023-03-10T03:19:11.907Z,9.70
2023-03-10T03:21:41.506Z,9.80
2023-03-10T03:24:11.230Z,9.70
2023-03-10T03:26:41.391Z,9.60
2023-03-10T03:29:18.052Z,9.70
2023-03-10T03:31:46.995Z,9.70
2023-03-10T03:34:20.783Z,9.80
2023-03-10T03:36:50.916Z,9.70
2023-03-10T03:39:24.859Z,9.80
2023-03-10T03:41:58.511Z,9.90
2023-03-10T03:44:31.914Z,9.80
2023-03-10T03:47:01.824Z,9.70
2023-03-10T03:49:31.019Z,9.70
2023-03-10T03:51:59.534Z,9.60
2023-03-10T03:54:28.188Z,9.60
2023-03-10T03:56:56.917Z,9.70
2023-03-10T03:59:25.719Z,10.00
2023-03-10T04:01:55.373Z,9.90
2023-03-10T04:04:25.056Z,9.80
2023-03-10T04:06:53.973Z,10.10
2023-03-10T04:09:22.549Z,9.70
2023-03-10T04:11:51.159Z,9.70
2023-03-10T04:14:20.701Z,9.70
2023-03-10T04:16:49.477Z,9.80
2023-03-10T04:19:19.277Z,9.80
2023-03-10T04:21:50.037Z,9.90
2023-03-10T04:24:19.384Z,9.90
2023-03-10T04:26:47.817Z,9.70
2023-03-10T04:29:16.658Z,9.70
2023-03-10T04:31:53.044Z,9.50
2023-03-10T04:34:33.693Z,9.40
2023-03-10T04:37:02.568Z,9.20
2023-03-10T04:39:31.219Z,9.20
2023-03-10T04:41:59.705Z,9.00
2023-03-10T04:44:31.243Z,9.10
2023-03-10T04:47:02.055Z,8.90
2023-03-10T04:49:32.501Z,8.80
2023-03-10T04:52:01.279Z,8.80
2023-03-10T04:54:30.007Z,8.60
2023-03-10T04:56:59.310Z,8.80
2023-03-10T04:59:28.509Z,8.70
2023-03-10T05:01:57.350Z,8.80
2023-03-10T05:04:25.853Z,8.90
2023-03-10T05:06:57.233Z,8.80
2023-03-10T05:09:30.422Z,8.80
2023-03-10T05:11:58.992Z,8.80
2023-03-10T05:14:31.856Z,8.80
2023-03-10T05:17:00.314Z,8.80
2023-03-10T05:19:29.654Z,9.30
2023-03-10T05:22:02.127Z,9.00
2023-03-10T05:24:31.556Z,9.10
2023-03-10T05:27:03.716Z,9.10
2023-03-10T05:29:32.567Z,9.10
2023-03-10T05:32:09.104Z,9.20
2023-03-10T05:34:40.503Z,9.20
2023-03-10T05:37:10.249Z,9.20
2023-03-10T05:39:38.989Z,9.60
2023-03-10T05:42:13.401Z,9.20
2023-03-10T05:44:43.462Z,9.20
2023-03-10T05:47:14.297Z,9.30
2023-03-10T05:49:42.676Z,9.30
2023-03-10T05:52:12.907Z,9.30
2023-03-10T05:54:42.302Z,9.50
2023-03-10T05:57:13.977Z,9.60
2023-03-10T05:59:44.165Z,9.50
2023-03-10T06:02:12.818Z,9.50
2023-03-10T06:04:41.061Z,9.60
2023-03-10T06:07:09.608Z,9.50
2023-03-10T06:09:39.192Z,9.50
2023-03-10T06:12:08.549Z,9.40
2023-03-10T06:14:39.763Z,9.40
2023-03-10T06:17:08.042Z,9.30
2023-03-10T06:19:36.602Z,9.30
2023-03-10T06:22:04.846Z,9.30
2023-03-10T06:24:33.076Z,9.30
2023-03-10T06:27:03.004Z,9.40
2023-03-10T06:29:31.269Z,9.30
2023-03-10T06:32:00.071Z,9.20
2023-03-10T06:34:28.436Z,9.10
2023-03-10T06:36:57.743Z,9.10
2023-03-10T06:39:28.825Z,9.30
2023-03-10T06:41:57.435Z,9.20
2023-03-10T06:44:27.152Z,9.10
2023-03-10T06:46:55.545Z,9.10
2023-03-10T06:49:24.374Z,9.10
2023-03-10T06:51:53.244Z,9.20
2023-03-10T06:54:22.877Z,9.30
2023-03-10T06:56:51.295Z,9.30
2023-03-10T06:59:19.655Z,9.50
2023-03-10T07:01:49.677Z,9.50
2023-03-10T07:04:17.918Z,9.60
2023-03-10T07:06:46.554Z,9.60
2023-03-10T07:09:14.863Z,9.70
2023-03-10T07:11:43.879Z,9.80
2023-03-10T07:14:12.086Z,10.10
2023-03-10T07:16:41.948Z,10.30
2023-03-10T07:19:11.870Z,10.30
2023-03-10T07:21:40.634Z,10.30
2023-03-10T07:24:09.570Z,10.60
2023-03-10T07:26:39.727Z,10.20
2023-03-10T07:29:07.979Z,10.10
2023-03-10T07:31:37.322Z,10.00
2023-03-10T07:34:06.482Z,9.90
2023-03-10T07:36:36.099Z,10.00
2023-03-10T07:39:04.491Z,9.90
2023-03-10T07:41:33.605Z,9.70
2023-03-10T07:44:02.313Z,9.70
2023-03-10T07:46:31.249Z,9.70
2023-03-10T07:49:00.454Z,9.70
2023-03-10T07:51:28.710Z,9.90
2023-03-10T08:54:37.330Z,9.90
2023-03-10T08:57:05.745Z,9.80
2023-03-10T08:59:34.264Z,9.80
2023-03-10T09:02:03.064Z,9.90
2023-03-10T09:04:31.445Z,9.90
2023-03-10T09:06:59.809Z,9.90
2023-03-10T09:09:29.971Z,10.10
2023-03-10T09:12:00.382Z,10.10
2023-03-10T09:14:28.799Z,9.80
2023-03-10T09:16:57.253Z,9.70
2023-03-10T09:19:25.744Z,9.50
2023-03-10T09:21:55.460Z,9.40
2023-03-10T09:24:23.956Z,9.40
2023-03-10T09:40:53.295Z,9.50
2023-03-10T09:43:23.114Z,9.50
2023-03-10T09:45:58.609Z,9.50
2023-03-10T09:48:48.048Z,9.40
2023-03-10T09:51:22.335Z,9.40
2023-03-10T09:54:11.696Z,9.40
2023-03-10T10:06:36.175Z,9.10
2023-03-10T10:09:09.981Z,8.90
2023-03-10T10:11:40.943Z,8.80
2023-03-10T10:14:30.602Z,8.80
2023-03-10T10:17:11.104Z,8.80
2023-03-10T10:19:41.052Z,8.90
2023-03-10T10:22:22.829Z,9.00
2023-03-10T10:25:11.710Z,8.90
2023-03-10T10:27:42.334Z,8.90
2023-03-10T10:30:34.481Z,9.00
2023-03-10T10:33:06.099Z,9.00
2023-03-10T10:35:38.633Z,9.10
2023-03-10T10:38:24.446Z,9.10
2023-03-10T10:41:01.830Z,9.30
2023-03-10T10:43:30.986Z,9.30
2023-03-10T10:46:07.331Z,9.40
2023-03-10T10:48:43.104Z,9.50
2023-03-10T10:51:27.256Z,9.90
2023-03-10T10:53:59.027Z,9.80
2023-03-10T10:56:30.316Z,9.80
2023-03-10T10:59:17.828Z,9.90
2023-03-10T11:01:54.542Z,9.90
2023-03-10T11:04:24.827Z,10.10
2023-03-10T11:06:54.960Z,10.00
2023-03-10T11:09:25.472Z,10.10
2023-03-10T11:12:09.162Z,10.10
2023-03-10T11:14:58.794Z,10.10
2023-03-10T11:17:34.325Z,10.10
2023-03-10T11:20:15.761Z,10.10
2023-03-10T11:22:50.750Z,10.10
2023-03-10T11:25:31.099Z,9.90
2023-03-10T11:28:23.174Z,9.90
2023-03-10T11:31:00.036Z,9.80
2023-03-10T11:33:39.718Z,9.80
2023-03-10T11:36:29.662Z,9.90
2023-03-10T11:39:10.550Z,10.00
2023-03-10T11:41:50.237Z,10.10
2023-03-10T11:44:33.263Z,10.40
2023-03-10T11:47:17.950Z,10.30
2023-03-10T11:49:52.566Z,10.30
2023-03-10T11:52:25.996Z,10.60
2023-03-10T11:55:05.738Z,11.10
2023-03-10T11:57:44.043Z,11.50
2023-03-10T12:00:26.202Z,11.80
2023-03-10T12:03:13.798Z,12.20
2023-03-10T12:05:52.309Z,12.10
2023-03-10T12:08:25.815Z,12.10
2023-03-10T12:10:57.327Z,11.90
2023-03-10T12:13:31.926Z,11.70
2023-03-10T12:16:04.501Z,11.70
2023-03-10T12:18:34.700Z,11.40
2023-03-10T12:21:22.905Z,11.20
2023-03-10T12:23:53.948Z,11.10
2023-03-10T12:27:01.607Z,11.00
2023-03-10T12:29:40.901Z,10.60
2023-03-10T12:32:47.375Z,10.30
2023-03-10T12:35:52.013Z,10.10
2023-03-10T12:38:38.325Z,10.10
2023-03-10T12:41:08.413Z,10.20
2023-03-10T12:44:04.048Z,9.90
2023-03-10T12:46:50.680Z,9.60
2023-03-10T12:49:42.927Z,9.30
2023-03-10T12:52:28.289Z,9.10
2023-03-10T12:55:17.828Z,9.00
2023-03-10T12:58:05.788Z,8.90
2023-03-10T13:00:50.236Z,8.90
2023-03-10T13:03:32.089Z,8.80
2023-03-10T13:06:08.547Z,8.60
2023-03-10T13:08:46.289Z,8.50
2023-03-10T13:11:28.677Z,8.40
2023-03-10T13:14:02.244Z,8.30
2023-03-10T13:16:31.362Z,8.30
2023-03-10T13:19:02.136Z,8.10
2023-03-10T13:21:33.219Z,8.20
2023-03-10T13:24:09.789Z,8.30
2023-03-10T13:26:38.170Z,8.40
2023-03-10T13:29:18.730Z,8.60
2023-03-10T13:31:54.701Z,8.60
2023-03-10T13:34:29.663Z,8.70
2023-03-10T13:37:05.645Z,8.70
2023-03-10T13:39:33.904Z,8.80
2023-03-10T13:42:06.728Z,8.70
2023-03-10T13:44:42.487Z,8.80
2023-03-10T13:47:18.258Z,8.50
2023-03-10T13:49:52.270Z,8.40
2023-03-10T13:52:24.740Z,8.20
2023-03-10T13:54:54.008Z,8.10
2023-03-10T13:57:31.324Z,8.20
2023-03-10T14:00:01.792Z,7.90
2023-03-10T14:02:33.893Z,8.10
2023-03-10T14:05:06.279Z,7.90
2023-03-10T14:07:37.341Z,7.80
2023-03-10T14:10:16.195Z,7.70
2023-03-10T14:12:46.936Z,7.70
2023-03-10T14:15:26.377Z,7.70
2023-03-10T14:18:20.676Z,7.80
2023-03-10T14:20:49.553Z,7.80
2023-03-10T14:23:35.341Z,7.70
2023-03-10T14:26:11.476Z,7.70
2023-03-10T14:28:41.815Z,7.70
2023-03-10T14:31:23.094Z,7.80
2023-03-10T14:33:53.113Z,7.60
2023-03-10T14:36:21.386Z,7.60
2023-03-10T14:38:49.661Z,7.70
2023-03-10T14:41:25.770Z,7.90
2023-03-10T14:43:54.157Z,7.80
2023-03-10T14:46:22.517Z,7.70
2023-03-10T14:48:52.337Z,7.70
2023-03-10T14:55:57.166Z,7.70
2023-03-10T14:58:31.259Z,7.90
2023-03-10T15:01:00.401Z,7.60
2023-03-10T15:03:29.391Z,7.50
2023-03-10T15:05:59.107Z,7.50
2023-03-10T15:08:30.364Z,7.60
2023-03-10T15:10:59.760Z,7.30
2023-03-10T15:13:28.078Z,7.20
2023-03-10T15:15:56.890Z,7.20
2023-03-10T15:18:27.304Z,7.20
2023-03-10T15:20:59.063Z,7.20
2023-03-10T15:23:30.047Z,7.20
2023-03-10T15:26:03.187Z,7.40
2023-03-10T15:28:31.642Z,7.20
2023-03-10T15:31:00.154Z,7.20
2023-03-10T15:33:28.813Z,7.00
2023-03-10T15:35:57.869Z,6.90
2023-03-10T15:38:27.920Z,6.90
2023-03-10T15:40:57.860Z,6.90
2023-03-10T15:43:25.994Z,6.90
2023-03-10T15:45:55.013Z,6.90
2023-03-10T15:48:23.650Z,6.70
2023-03-10T15:50:52.491Z,5.80
2023-03-10T15:53:20.880Z,5.40
2023-03-10T15:55:52.905Z,5.50
2023-03-10T15:58:21.511Z,5.60
2023-03-10T16:00:50.084Z,5.70
2023-03-10T16:03:18.711Z,5.80
2023-03-10T16:05:49.038Z,5.80
2023-03-10T16:08:19.491Z,5.90
2023-03-10T16:10:56.935Z,6.00
2023-03-10T16:13:26.241Z,6.30
2023-03-10T16:15:54.963Z,6.40
2023-03-10T16:18:23.284Z,6.10
2023-03-10T16:20:58.789Z,6.20
2023-03-10T16:23:28.999Z,6.20
2023-03-10T16:26:12.053Z,6.20
2023-03-10T16:28:43.535Z,6.20
2023-03-10T16:31:14.717Z,6.20
2023-03-10T16:33:43.259Z,6.30
2023-03-10T16:36:18.601Z,6.40
2023-03-10T16:38:51.197Z,6.40
2023-03-10T16:41:22.946Z,6.40
2023-03-10T16:43:53.526Z,6.40
2023-03-10T16:46:26.025Z,6.40
2023-03-10T16:48:55.783Z,6.40
2023-03-10T16:51:28.306Z,6.60
2023-03-10T16:53:59.285Z,6.30
2023-03-10T16:56:31.662Z,6.30
2023-03-10T16:59:00.196Z,6.40
2023-03-10T17:01:29.008Z,6.40
2023-03-10T17:03:57.945Z,6.40
2023-03-10T17:06:30.080Z,6.50
2023-03-10T17:09:02.712Z,6.40
2023-03-10T17:11:35.091Z,6.90
2023-03-10T17:14:07.202Z,6.40
2023-03-10T17:16:37.436Z,6.40
2023-03-10T17:19:11.798Z,6.50
2023-03-10T17:21:45.700Z,6.50
2023-03-10T17:24:15.834Z,6.40
2023-03-10T17:26:46.162Z,6.50
2023-03-10T17:29:15.833Z,6.50
2023-03-10T17:31:49.112Z,6.40
2023-03-10T17:34:17.798Z,6.30
2023-03-10T17:36:47.446Z,5.90
2023-03-10T17:39:20.138Z,5.50
2023-03-10T17:41:51.310Z,5.40
2023-03-10T17:44:19.677Z,5.50
2023-03-10T17:46:48.815Z,5.60
2023-03-10T17:49:18.120Z,5.60
2023-03-10T17:51:49.217Z,5.60
2023-03-10T17:54:21.786Z,5.70
2023-03-10T17:56:52.309Z,5.80
2023-03-10T17:59:21.646Z,5.70
2023-03-10T18:01:50.305Z,5.60
2023-03-10T18:04:18.950Z,5.40
2023-03-10T18:06:47.739Z,5.40
2023-03-10T18:09:17.313Z,5.40
2023-03-10T18:11:45.822Z,5.20
2023-03-10T18:14:15.669Z,5.20
2023-03-10T18:16:45.058Z,5.20
2023-03-10T18:19:21.266Z,5.20
2023-03-10T18:21:51.229Z,5.20
2023-03-10T18:24:19.732Z,5.20
2023-03-10T18:26:48.018Z,5.20
2023-03-10T18:29:18.270Z,5.20
2023-03-10T18:31:46.907Z,5.10
2023-03-10T18:34:15.809Z,5.10
2023-03-10T18:36:44.070Z,5.10
2023-03-10T18:39:12.881Z,5.10
2023-03-10T18:41:41.187Z,5.10
2023-03-10T18:44:30.402Z,5.10
2023-03-10T18:47:17.355Z,5.10
2023-03-10T18:49:46.242Z,5.20
2023-03-10T18:52:16.167Z,5.10
2023-03-10T18:54:45.997Z,5.20
2023-03-10T18:57:15.083Z,5.20
2023-03-10T18:59:45.057Z,5.20
2023-03-10T19:02:16.127Z,5.20
2023-03-10T19:04:47.748Z,5.20
2023-03-10T19:07:20.424Z,5.00
2023-03-10T19:09:54.912Z,5.00
2023-03-10T19:12:25.325Z,5.00
2023-03-10T19:14:57.087Z,4.90
2023-03-10T19:17:26.953Z,4.90
2023-03-10T19:19:55.150Z,4.90
2023-03-10T19:22:24.131Z,4.90
2023-03-10T19:24:52.466Z,4.90
2023-03-10T19:27:20.661Z,4.80
2023-03-10T19:29:53.105Z,4.70
2023-03-10T19:32:23.739Z,4.70
2023-03-10T19:34:52.717Z,4.70
2023-03-10T19:37:22.117Z,4.70
2023-03-10T19:39:50.619Z,4.70
2023-03-10T19:42:19.245Z,4.70
2023-03-10T19:44:47.430Z,4.70
2023-03-10T19:47:17.891Z,4.60
2023-03-10T19:49:47.659Z,4.60
2023-03-10T19:52:15.895Z,4.50
2023-03-10T19:54:44.362Z,4.40
2023-03-10T19:57:13.722Z,4.30
2023-03-10T19:59:42.881Z,4.20
2023-03-10T20:02:16.187Z,4.20
2023-03-10T20:04:45.838Z,4.10
2023-03-10T20:07:15.399Z,4.10
2023-03-10T20:09:43.714Z,4.10
2023-03-10T20:12:12.131Z,4.10
2023-03-10T20:14:40.422Z,4.10
2023-03-10T20:18:35.939Z,4.10
2023-03-10T21:09:22.804Z,2.90
2023-03-10T21:11:52.064Z,3.00
2023-03-10T21:14:20.697Z,2.90
2023-03-10T21:16:49.584Z,2.90
2023-03-10T21:19:18.231Z,3.00
2023-03-10T21:21:47.158Z,3.10
2023-03-10T21:24:15.635Z,3.10
2023-03-10T21:26:46.053Z,3.10
2023-03-10T21:29:14.525Z,3.10
2023-03-10T21:31:43.259Z,3.10
2023-03-10T21:34:12.097Z,3.10
2023-03-10T21:36:40.710Z,3.20
2023-03-10T21:39:10.145Z,3.20
2023-03-10T21:41:38.914Z,3.10
2023-03-10T21:44:09.942Z,3.10
2023-03-10T21:46:38.966Z,3.10
2023-03-10T21:49:26.062Z,3.00
2023-03-10T21:52:14.140Z,2.90
2023-03-10T21:54:43.794Z,2.90
2023-03-10T21:57:12.236Z,2.90
2023-03-10T21:59:42.204Z,2.80
2023-03-10T22:02:23.914Z,2.80
2023-03-10T22:04:52.896Z,2.60
2023-03-10T22:07:22.005Z,2.70
2023-03-10T22:09:51.450Z,2.70
2023-03-10T22:12:21.033Z,2.60
2023-03-10T22:14:56.144Z,2.70
2023-03-10T22:17:25.529Z,2.60
2023-03-10T22:19:55.938Z,2.60
2023-03-10T22:22:26.129Z,2.60
2023-03-10T22:24:55.207Z,2.50
2023-03-10T22:27:23.911Z,2.60
2023-03-10T22:29:56.316Z,2.60
2023-03-10T22:32:25.705Z,2.60
2023-03-10T22:34:56.797Z,2.60
2023-03-10T22:37:25.579Z,2.60
2023-03-10T22:39:54.333Z,2.70
2023-03-10T22:42:23.049Z,2.60
2023-03-10T22:44:53.400Z,2.50
2023-03-10T22:47:23.820Z,2.50
2023-03-10T22:52:41.122Z,2.50
2023-03-10T22:55:15.354Z,2.50
2023-03-10T22:57:44.673Z,2.40
2023-03-10T23:00:19.909Z,2.30
2023-03-10T23:03:09.376Z,2.30
2023-03-10T23:05:39.192Z,2.30
2023-03-10T23:08:09.187Z,2.20
2023-03-10T23:10:42.049Z,2.20
2023-03-10T23:13:16.676Z,2.10
2023-03-10T23:15:49.367Z,2.20
2023-03-10T23:18:19.912Z,2.10
2023-03-10T23:20:53.275Z,2.00
2023-03-10T23:23:48.815Z,2.10
2023-03-10T23:29:28.046Z,1.90
2023-03-10T23:31:58.362Z,1.90
2023-03-10T23:34:30.689Z,1.90
2023-03-10T23:36:59.826Z,1.90
2023-03-10T23:39:30.216Z,1.80
2023-03-10T23:41:58.994Z,1.80
2023-03-10T23:44:28.652Z,1.80
2023-03-10T23:46:58.830Z,1.80
2023-03-10T23:49:31.237Z,2.10
2023-03-10T23:52:00.739Z,1.90
2023-03-10T23:54:33.023Z,1.90
2023-03-10T23:57:01.929Z,1.90
2023-03-10T23:59:50.868Z,1.90
